Terminal Aerodrome Forecast
Issued by NWS Tampa Bay Area, FL

Home | Current Version | Previous Version | Text Only | Print | Product List | Glossary On
Versions: 1 2 3 4 5 6 7 8 9 10 11 12 13 14 15 16 17 18 19 20 21 22 23 24 25 26
000
FTUS42 KTBW 221739
TAFTPA
TAF
KTPA 221739Z 2218/2324 26006KT P6SM SCT035 SCT130 BKN250
     FM222100 30006KT P6SM SCT040 BKN130
     FM230200 06006KT P6SM SCT040 BKN130
     FM230800 08005KT P6SM VCSH SCT015 BKN040
     FM231400 13006KT P6SM VCSH SCT015 BKN025
     FM231700 17007KT P6SM VCTS SCT020CB BKN035=

USA.gov is the U.S. government's official web portal to all federal, state and local government web resources and services.